sensor_id;sensor_type;location;lat;lon;timestamp;temperature;humidity
29281;DHT22;25048;49.590;11.026;2022-08-25T00:02:04;15.70;99.90
29281;DHT22;25048;49.590;11.026;2022-08-25T00:04:32;15.70;99.90
29281;DHT22;25048;49.590;11.026;2022-08-25T00:07:02;15.60;99.90
29281;DHT22;25048;49.590;11.026;2022-08-25T00:09:32;15.60;99.90
29281;DHT22;25048;49.590;11.026;2022-08-25T00:12:01;15.50;99.90
29281;DHT22;25048;49.590;11.026;2022-08-25T00:14:32;15.50;99.90
29281;DHT22;25048;49.590;11.026;2022-08-25T00:16:59;15.50;99.90
29281;DHT22;25048;49.590;11.026;2022-08-25T00:19:30;15.40;99.90
29281;DHT22;25048;49.590;11.026;2022-08-25T00:21:58;15.40;99.90
29281;DHT22;25048;49.590;11.026;2022-08-25T00:24:26;15.40;99.90
29281;DHT22;25048;49.590;11.026;2022-08-25T00:26:56;15.40;99.90
29281;DHT22;25048;49.590;11.026;2022-08-25T00:29:25;15.50;99.90
29281;DHT22;25048;49.590;11.026;2022-08-25T00:31:53;15.40;99.90
29281;DHT22;25048;49.590;11.026;2022-08-25T00:34:23;15.40;99.90
29281;DHT22;25048;49.590;11.026;2022-08-25T00:36:51;15.40;99.90
29281;DHT22;25048;49.590;11.026;2022-08-25T00:39:20;15.30;99.90
29281;DHT22;25048;49.590;11.026;2022-08-25T00:41:50;15.30;99.90
29281;DHT22;25048;49.590;11.026;2022-08-25T00:44:19;15.20;99.90
29281;DHT22;25048;49.590;11.026;2022-08-25T00:46:50;15.20;99.90
29281;DHT22;25048;49.590;11.026;2022-08-25T00:49:41;15.10;99.90
29281;DHT22;25048;49.590;11.026;2022-08-25T00:52:15;15.10;99.90
29281;DHT22;25048;49.590;11.026;2022-08-25T00:55:08;15.00;99.90
29281;DHT22;25048;49.590;11.026;2022-08-25T00:57:16;15.00;99.90
29281;DHT22;25048;49.590;11.026;2022-08-25T00:59:44;15.00;99.90
29281;DHT22;25048;49.590;11.026;2022-08-25T01:02:12;14.90;99.90
29281;DHT22;25048;49.590;11.026;2022-08-25T01:04:42;14.90;99.90
29281;DHT22;25048;49.590;11.026;2022-08-25T01:07:10;14.80;99.90
29281;DHT22;25048;49.590;11.026;2022-08-25T01:09:38;14.80;99.90
29281;DHT22;25048;49.590;11.026;2022-08-25T01:12:07;14.80;99.90
29281;DHT22;25048;49.590;11.026;2022-08-25T01:14:36;14.80;99.90
29281;DHT22;25048;49.590;11.026;2022-08-25T01:17:04;14.70;99.90
29281;DHT22;25048;49.590;11.026;2022-08-25T01:19:32;14.70;99.90
29281;DHT22;25048;49.590;11.026;2022-08-25T01:22:00;14.70;99.90
29281;DHT22;25048;49.590;11.026;2022-08-25T01:24:48;14.70;99.90
29281;DHT22;25048;49.590;11.026;2022-08-25T01:27:15;14.60;99.90
29281;DHT22;25048;49.590;11.026;2022-08-25T01:29:43;14.60;99.90
29281;DHT22;25048;49.590;11.026;2022-08-25T01:32:12;14.60;99.90
29281;DHT22;25048;49.590;11.026;2022-08-25T01:34:43;14.60;99.90
29281;DHT22;25048;49.590;11.026;2022-08-25T01:37:12;14.60;99.90
29281;DHT22;25048;49.590;11.026;2022-08-25T01:39:40;14.50;99.90
29281;DHT22;25048;49.590;11.026;2022-08-25T01:44:51;14.60;99.90
29281;DHT22;25048;49.590;11.026;2022-08-25T01:47:18;14.60;99.90
29281;DHT22;25048;49.590;11.026;2022-08-25T01:49:46;14.50;99.90
29281;DHT22;25048;49.590;11.026;2022-08-25T01:52:29;14.50;99.90
29281;DHT22;25048;49.590;11.026;2022-08-25T01:54:47;14.50;99.90
29281;DHT22;25048;49.590;11.026;2022-08-25T01:57:15;14.50;99.90
29281;DHT22;25048;49.590;11.026;2022-08-25T01:59:43;14.40;99.90
29281;DHT22;25048;49.590;11.026;2022-08-25T02:02:11;14.40;99.90
29281;DHT22;25048;49.590;11.026;2022-08-25T02:04:38;14.30;99.90
29281;DHT22;25048;49.590;11.026;2022-08-25T02:07:07;14.30;99.90
29281;DHT22;25048;49.590;11.026;2022-08-25T02:09:36;14.30;99.90
29281;DHT22;25048;49.590;11.026;2022-08-25T02:12:04;14.30;99.90
29281;DHT22;25048;49.590;11.026;2022-08-25T02:14:32;14.20;99.90
29281;DHT22;25048;49.590;11.026;2022-08-25T02:17:01;14.20;99.90
29281;DHT22;25048;49.590;11.026;2022-08-25T02:19:29;14.20;99.90
29281;DHT22;25048;49.590;11.026;2022-08-25T02:21:58;14.20;99.90
29281;DHT22;25048;49.590;11.026;2022-08-25T02:24:26;14.10;99.90
29281;DHT22;25048;49.590;11.026;2022-08-25T02:26:53;14.10;99.90
29281;DHT22;25048;49.590;11.026;2022-08-25T02:29:21;14.10;99.90
29281;DHT22;25048;49.590;11.026;2022-08-25T02:31:49;14.00;99.90
29281;DHT22;25048;49.590;11.026;2022-08-25T02:34:16;14.00;99.90
29281;DHT22;25048;49.590;11.026;2022-08-25T02:36:44;14.00;99.90
29281;DHT22;25048;49.590;11.026;2022-08-25T02:39:12;14.00;99.90
29281;DHT22;25048;49.590;11.026;2022-08-25T02:41:39;14.00;99.90
29281;DHT22;25048;49.590;11.026;2022-08-25T02:44:08;14.00;99.90
29281;DHT22;25048;49.590;11.026;2022-08-25T02:46:36;14.00;99.90
29281;DHT22;25048;49.590;11.026;2022-08-25T02:49:05;14.00;99.90
29281;DHT22;25048;49.590;11.026;2022-08-25T02:51:33;14.00;99.90
29281;DHT22;25048;49.590;11.026;2022-08-25T02:54:03;14.00;99.90
29281;DHT22;25048;49.590;11.026;2022-08-25T02:56:31;13.90;99.90
29281;DHT22;25048;49.590;11.026;2022-08-25T02:59:00;13.90;99.90
29281;DHT22;25048;49.590;11.026;2022-08-25T03:01:28;13.90;99.90
29281;DHT22;25048;49.590;11.026;2022-08-25T03:03:56;13.90;99.90
29281;DHT22;25048;49.590;11.026;2022-08-25T03:06:24;13.90;99.90
29281;DHT22;25048;49.590;11.026;2022-08-25T03:08:54;13.80;99.90
29281;DHT22;25048;49.590;11.026;2022-08-25T03:11:21;13.80;99.90
29281;DHT22;25048;49.590;11.026;2022-08-25T03:13:51;13.80;99.90
29281;DHT22;25048;49.590;11.026;2022-08-25T03:16:19;13.80;99.90
29281;DHT22;25048;49.590;11.026;2022-08-25T03:18:47;13.80;99.90
29281;DHT22;25048;49.590;11.026;2022-08-25T03:21:16;13.80;99.90
29281;DHT22;25048;49.590;11.026;2022-08-25T03:23:44;13.80;99.90
29281;DHT22;25048;49.590;11.026;2022-08-25T03:26:12;13.70;99.90
29281;DHT22;25048;49.590;11.026;2022-08-25T03:28:57;13.70;99.90
29281;DHT22;25048;49.590;11.026;2022-08-25T03:31:26;13.70;99.90
29281;DHT22;25048;49.590;11.026;2022-08-25T03:33:54;13.70;99.90
29281;DHT22;25048;49.590;11.026;2022-08-25T03:36:22;13.60;99.90
29281;DHT22;25048;49.590;11.026;2022-08-25T03:38:50;13.60;99.90
29281;DHT22;25048;49.590;11.026;2022-08-25T03:41:23;13.60;99.90
29281;DHT22;25048;49.590;11.026;2022-08-25T03:43:52;13.60;99.90
29281;DHT22;25048;49.590;11.026;2022-08-25T03:46:27;13.50;99.90
29281;DHT22;25048;49.590;11.026;2022-08-25T03:48:56;13.50;99.90
29281;DHT22;25048;49.590;11.026;2022-08-25T03:51:26;13.50;99.90
29281;DHT22;25048;49.590;11.026;2022-08-25T03:53:55;13.50;99.90
29281;DHT22;25048;49.590;11.026;2022-08-25T03:56:24;13.50;99.90
29281;DHT22;25048;49.590;11.026;2022-08-25T03:58:53;13.50;99.90
29281;DHT22;25048;49.590;11.026;2022-08-25T04:01:21;13.50;99.90
29281;DHT22;25048;49.590;11.026;2022-08-25T04:03:49;13.40;99.90
29281;DHT22;25048;49.590;11.026;2022-08-25T04:06:18;13.40;99.90
29281;DHT22;25048;49.590;11.026;2022-08-25T04:08:46;13.40;99.90
29281;DHT22;25048;49.590;11.026;2022-08-25T04:11:19;13.40;99.90
29281;DHT22;25048;49.590;11.026;2022-08-25T04:13:48;13.40;99.90
29281;DHT22;25048;49.590;11.026;2022-08-25T04:16:18;13.30;99.90
29281;DHT22;25048;49.590;11.026;2022-08-25T04:18:47;13.30;99.90
29281;DHT22;25048;49.590;11.026;2022-08-25T04:21:16;13.30;99.90
29281;DHT22;25048;49.590;11.026;2022-08-25T04:23:45;13.30;99.90
29281;DHT22;25048;49.590;11.026;2022-08-25T04:26:16;13.30;99.90
29281;DHT22;25048;49.590;11.026;2022-08-25T04:28:46;13.30;99.90
29281;DHT22;25048;49.590;11.026;2022-08-25T04:31:14;13.20;99.90
29281;DHT22;25048;49.590;11.026;2022-08-25T04:33:43;13.20;99.90
29281;DHT22;25048;49.590;11.026;2022-08-25T04:36:12;13.10;99.90
29281;DHT22;25048;49.590;11.026;2022-08-25T04:38:40;13.10;99.90
29281;DHT22;25048;49.590;11.026;2022-08-25T04:41:10;13.10;99.90
29281;DHT22;25048;49.590;11.026;2022-08-25T04:43:39;13.10;99.90
29281;DHT22;25048;49.590;11.026;2022-08-25T04:46:10;13.10;99.90
29281;DHT22;25048;49.590;11.026;2022-08-25T04:48:38;13.10;99.90
29281;DHT22;25048;49.590;11.026;2022-08-25T04:51:08;13.10;99.90
29281;DHT22;25048;49.590;11.026;2022-08-25T04:53:37;13.10;99.90
29281;DHT22;25048;49.590;11.026;2022-08-25T04:56:10;13.20;99.90
29281;DHT22;25048;49.590;11.026;2022-08-25T04:58:39;13.20;99.90
29281;DHT22;25048;49.590;11.026;2022-08-25T05:01:09;13.20;99.90
29281;DHT22;25048;49.590;11.026;2022-08-25T05:03:38;13.20;99.90
29281;DHT22;25048;49.590;11.026;2022-08-25T05:06:05;13.20;99.90
29281;DHT22;25048;49.590;11.026;2022-08-25T05:08:34;13.30;99.90
29281;DHT22;25048;49.590;11.026;2022-08-25T05:11:06;13.30;99.90
29281;DHT22;25048;49.590;11.026;2022-08-25T05:13:34;13.40;99.90
29281;DHT22;25048;49.590;11.026;2022-08-25T05:16:03;13.40;99.90
29281;DHT22;25048;49.590;11.026;2022-08-25T05:18:31;13.50;99.90
29281;DHT22;25048;49.590;11.026;2022-08-25T05:21:11;13.60;99.90
29281;DHT22;25048;49.590;11.026;2022-08-25T05:23:40;13.70;99.90
29281;DHT22;25048;49.590;11.026;2022-08-25T05:26:10;13.80;99.90
29281;DHT22;25048;49.590;11.026;2022-08-25T05:28:39;13.90;99.90
29281;DHT22;25048;49.590;11.026;2022-08-25T05:31:09;14.00;99.90
29281;DHT22;25048;49.590;11.026;2022-08-25T05:33:38;14.10;99.90
29281;DHT22;25048;49.590;11.026;2022-08-25T05:36:06;14.20;99.90
29281;DHT22;25048;49.590;11.026;2022-08-25T05:38:35;14.30;99.90
29281;DHT22;25048;49.590;11.026;2022-08-25T05:41:05;14.40;99.90
29281;DHT22;25048;49.590;11.026;2022-08-25T05:43:33;14.50;99.90
29281;DHT22;25048;49.590;11.026;2022-08-25T05:46:02;14.60;99.90
29281;DHT22;25048;49.590;11.026;2022-08-25T05:48:30;14.70;99.90
29281;DHT22;25048;49.590;11.026;2022-08-25T05:51:00;14.80;99.90
29281;DHT22;25048;49.590;11.026;2022-08-25T05:53:28;14.90;99.90
29281;DHT22;25048;49.590;11.026;2022-08-25T05:55:57;15.00;99.90
29281;DHT22;25048;49.590;11.026;2022-08-25T05:58:26;15.10;99.90
29281;DHT22;25048;49.590;11.026;2022-08-25T06:00:55;15.30;99.90
29281;DHT22;25048;49.590;11.026;2022-08-25T06:03:23;15.40;99.90
29281;DHT22;25048;49.590;11.026;2022-08-25T06:05:50;15.50;99.90
29281;DHT22;25048;49.590;11.026;2022-08-25T06:08:18;15.60;99.90
29281;DHT22;25048;49.590;11.026;2022-08-25T06:10:50;15.80;99.90
29281;DHT22;25048;49.590;11.026;2022-08-25T06:13:16;15.90;99.90
29281;DHT22;25048;49.590;11.026;2022-08-25T06:15:43;16.10;99.90
29281;DHT22;25048;49.590;11.026;2022-08-25T06:18:11;16.30;99.90
29281;DHT22;25048;49.590;11.026;2022-08-25T06:20:38;16.50;99.90
29281;DHT22;25048;49.590;11.026;2022-08-25T06:23:06;16.60;99.90
29281;DHT22;25048;49.590;11.026;2022-08-25T06:25:33;16.80;99.90
29281;DHT22;25048;49.590;11.026;2022-08-25T06:28:01;17.00;99.90
29281;DHT22;25048;49.590;11.026;2022-08-25T06:30:28;17.10;99.90
29281;DHT22;25048;49.590;11.026;2022-08-25T06:32:56;17.30;99.90
29281;DHT22;25048;49.590;11.026;2022-08-25T06:35:24;17.50;99.90
29281;DHT22;25048;49.590;11.026;2022-08-25T06:37:52;17.70;99.90
29281;DHT22;25048;49.590;11.026;2022-08-25T06:40:20;17.90;99.90
29281;DHT22;25048;49.590;11.026;2022-08-25T06:42:48;18.10;99.90
29281;DHT22;25048;49.590;11.026;2022-08-25T06:45:16;18.20;99.90
29281;DHT22;25048;49.590;11.026;2022-08-25T06:47:43;18.40;99.90
29281;DHT22;25048;49.590;11.026;2022-08-25T06:50:11;18.50;99.90
29281;DHT22;25048;49.590;11.026;2022-08-25T06:52:38;18.70;99.90
29281;DHT22;25048;49.590;11.026;2022-08-25T06:55:06;18.90;99.90
29281;DHT22;25048;49.590;11.026;2022-08-25T06:57:34;19.00;99.90
29281;DHT22;25048;49.590;11.026;2022-08-25T07:00:04;19.20;99.90
29281;DHT22;25048;49.590;11.026;2022-08-25T07:02:33;19.50;99.90
29281;DHT22;25048;49.590;11.026;2022-08-25T07:05:01;19.60;99.90
29281;DHT22;25048;49.590;11.026;2022-08-25T07:07:29;19.80;99.90
29281;DHT22;25048;49.590;11.026;2022-08-25T07:09:57;20.00;99.90
29281;DHT22;25048;49.590;11.026;2022-08-25T07:12:24;20.20;99.90
29281;DHT22;25048;49.590;11.026;2022-08-25T07:14:52;20.40;99.90
29281;DHT22;25048;49.590;11.026;2022-08-25T07:17:21;20.60;99.90
29281;DHT22;25048;49.590;11.026;2022-08-25T07:19:49;20.70;99.90
29281;DHT22;25048;49.590;11.026;2022-08-25T07:22:16;20.90;99.90
29281;DHT22;25048;49.590;11.026;2022-08-25T07:24:44;21.10;99.90
29281;DHT22;25048;49.590;11.026;2022-08-25T07:27:12;21.30;99.90
29281;DHT22;25048;49.590;11.026;2022-08-25T07:29:39;21.40;99.90
29281;DHT22;25048;49.590;11.026;2022-08-25T07:32:07;21.60;99.90
29281;DHT22;25048;49.590;11.026;2022-08-25T07:34:34;21.80;99.90
29281;DHT22;25048;49.590;11.026;2022-08-25T07:37:21;22.00;99.90
29281;DHT22;25048;49.590;11.026;2022-08-25T07:39:49;22.20;99.90
29281;DHT22;25048;49.590;11.026;2022-08-25T07:42:17;22.30;99.90
29281;DHT22;25048;49.590;11.026;2022-08-25T07:44:44;22.50;99.90
29281;DHT22;25048;49.590;11.026;2022-08-25T07:47:12;22.60;99.90
29281;DHT22;25048;49.590;11.026;2022-08-25T07:49:41;22.80;99.90
29281;DHT22;25048;49.590;11.026;2022-08-25T07:52:09;22.90;99.90
29281;DHT22;25048;49.590;11.026;2022-08-25T07:54:37;23.00;99.90
29281;DHT22;25048;49.590;11.026;2022-08-25T07:57:07;23.20;99.90
29281;DHT22;25048;49.590;11.026;2022-08-25T07:59:38;23.30;99.90
29281;DHT22;25048;49.590;11.026;2022-08-25T08:02:03;23.50;99.90
29281;DHT22;25048;49.590;11.026;2022-08-25T08:04:31;23.70;99.90
29281;DHT22;25048;49.590;11.026;2022-08-25T08:07:00;23.80;99.90
29281;DHT22;25048;49.590;11.026;2022-08-25T08:09:28;23.90;99.90
29281;DHT22;25048;49.590;11.026;2022-08-25T08:11:56;24.10;99.90
29281;DHT22;25048;49.590;11.026;2022-08-25T08:14:24;24.30;99.90
29281;DHT22;25048;49.590;11.026;2022-08-25T08:16:51;24.40;99.90
29281;DHT22;25048;49.590;11.026;2022-08-25T08:19:19;24.60;99.90
29281;DHT22;25048;49.590;11.026;2022-08-25T08:21:48;24.70;99.90
29281;DHT22;25048;49.590;11.026;2022-08-25T08:24:16;24.80;99.90
29281;DHT22;25048;49.590;11.026;2022-08-25T08:26:43;24.90;99.90
29281;DHT22;25048;49.590;11.026;2022-08-25T08:29:11;25.10;99.90
29281;DHT22;25048;49.590;11.026;2022-08-25T08:31:39;25.20;99.90
29281;DHT22;25048;49.590;11.026;2022-08-25T08:34:06;25.40;99.90
29281;DHT22;25048;49.590;11.026;2022-08-25T08:36:34;25.60;99.90
29281;DHT22;25048;49.590;11.026;2022-08-25T08:39:02;25.70;99.90
29281;DHT22;25048;49.590;11.026;2022-08-25T08:47:52;25.90;99.90
29281;DHT22;25048;49.590;11.026;2022-08-25T08:50:36;26.00;99.90
29281;DHT22;25048;49.590;11.026;2022-08-25T08:53:18;26.20;99.90
29281;DHT22;25048;49.590;11.026;2022-08-25T08:55:51;26.40;99.90
29281;DHT22;25048;49.590;11.026;2022-08-25T08:58:22;26.50;99.90
29281;DHT22;25048;49.590;11.026;2022-08-25T09:00:54;26.60;99.90
29281;DHT22;25048;49.590;11.026;2022-08-25T09:03:35;26.70;99.90
29281;DHT22;25048;49.590;11.026;2022-08-25T09:06:50;26.90;99.90
29281;DHT22;25048;49.590;11.026;2022-08-25T09:08:35;27.10;99.90
29281;DHT22;25048;49.590;11.026;2022-08-25T09:11:21;27.30;99.90
29281;DHT22;25048;49.590;11.026;2022-08-25T09:14:06;27.50;99.90
29281;DHT22;25048;49.590;11.026;2022-08-25T09:16:51;27.60;99.90
29281;DHT22;25048;49.590;11.026;2022-08-25T09:19:56;27.80;99.90
29281;DHT22;25048;49.590;11.026;2022-08-25T09:25:03;28.00;99.90
29281;DHT22;25048;49.590;11.026;2022-08-25T09:30:07;28.30;99.90
29281;DHT22;25048;49.590;11.026;2022-08-25T09:32:41;28.30;99.90
29281;DHT22;25048;49.590;11.026;2022-08-25T09:35:25;28.20;99.90
29281;DHT22;25048;49.590;11.026;2022-08-25T09:37:59;28.00;99.90
29281;DHT22;25048;49.590;11.026;2022-08-25T09:40:30;27.90;99.90
29281;DHT22;25048;49.590;11.026;2022-08-25T09:43:02;28.00;99.90
29281;DHT22;25048;49.590;11.026;2022-08-25T09:45:41;28.30;99.90
29281;DHT22;25048;49.590;11.026;2022-08-25T09:48:29;28.50;99.90
29281;DHT22;25048;49.590;11.026;2022-08-25T09:51:00;28.90;99.90
29281;DHT22;25048;49.590;11.026;2022-08-25T09:53:28;29.20;99.90
29281;DHT22;25048;49.590;11.026;2022-08-25T09:56:01;29.50;99.90
29281;DHT22;25048;49.590;11.026;2022-08-25T09:58:31;29.90;99.90
29281;DHT22;25048;49.590;11.026;2022-08-25T10:01:05;30.10;99.90
29281;DHT22;25048;49.590;11.026;2022-08-25T10:03:32;30.10;99.90
29281;DHT22;25048;49.590;11.026;2022-08-25T10:06:05;30.00;99.90
29281;DHT22;25048;49.590;11.026;2022-08-25T10:08:39;30.00;99.90
29281;DHT22;25048;49.590;11.026;2022-08-25T10:11:09;29.90;99.90
29281;DHT22;25048;49.590;11.026;2022-08-25T10:13:42;30.00;99.90
29281;DHT22;25048;49.590;11.026;2022-08-25T10:16:19;30.10;99.90
29281;DHT22;25048;49.590;11.026;2022-08-25T10:18:41;30.20;99.90
29281;DHT22;25048;49.590;11.026;2022-08-25T10:21:15;30.20;99.90
29281;DHT22;25048;49.590;11.026;2022-08-25T10:23:52;30.10;99.90
29281;DHT22;25048;49.590;11.026;2022-08-25T10:29:15;29.40;99.90
29281;DHT22;25048;49.590;11.026;2022-08-25T10:31:53;29.20;99.90
29281;DHT22;25048;49.590;11.026;2022-08-25T10:42:55;28.90;99.90
29281;DHT22;25048;49.590;11.026;2022-08-25T10:48:30;29.00;99.90
29281;DHT22;25048;49.590;11.026;2022-08-25T10:51:28;29.20;99.90
29281;DHT22;25048;49.590;11.026;2022-08-25T10:54:07;29.10;99.90
29281;DHT22;25048;49.590;11.026;2022-08-25T10:56:45;29.00;99.90
29281;DHT22;25048;49.590;11.026;2022-08-25T10:59:44;28.90;99.90
29281;DHT22;25048;49.590;11.026;2022-08-25T11:05:08;28.80;99.90
29281;DHT22;25048;49.590;11.026;2022-08-25T11:07:39;28.70;99.90
29281;DHT22;25048;49.590;11.026;2022-08-25T11:10:10;28.60;99.90
29281;DHT22;25048;49.590;11.026;2022-08-25T11:12:44;28.60;99.90
29281;DHT22;25048;49.590;11.026;2022-08-25T11:18:02;29.30;99.90
29281;DHT22;25048;49.590;11.026;2022-08-25T11:20:33;29.70;99.90
29281;DHT22;25048;49.590;11.026;2022-08-25T11:23:16;30.10;99.50
29281;DHT22;25048;49.590;11.026;2022-08-25T11:25:45;30.10;98.10
29281;DHT22;25048;49.590;11.026;2022-08-25T11:31:01;29.90;98.10
29281;DHT22;25048;49.590;11.026;2022-08-25T11:33:30;29.70;98.80
29281;DHT22;25048;49.590;11.026;2022-08-25T11:37:05;29.50;98.80
29281;DHT22;25048;49.590;11.026;2022-08-25T11:47:16;28.90;99.90
29281;DHT22;25048;49.590;11.026;2022-08-25T11:49:54;28.90;99.90
29281;DHT22;25048;49.590;11.026;2022-08-25T12:00:58;28.60;99.50
29281;DHT22;25048;49.590;11.026;2022-08-25T12:06:24;28.50;99.70
29281;DHT22;25048;49.590;11.026;2022-08-25T12:11:55;28.70;99.90
29281;DHT22;25048;49.590;11.026;2022-08-25T12:16:59;29.00;99.30
29281;DHT22;25048;49.590;11.026;2022-08-25T12:24:49;29.80;99.30
29281;DHT22;25048;49.590;11.026;2022-08-25T12:30:19;30.20;96.80
29281;DHT22;25048;49.590;11.026;2022-08-25T12:35:59;30.90;96.80
29281;DHT22;25048;49.590;11.026;2022-08-25T12:38:45;31.20;95.20
29281;DHT22;25048;49.590;11.026;2022-08-25T12:41:15;31.50;94.80
29281;DHT22;25048;49.590;11.026;2022-08-25T12:43:51;32.00;93.10
29281;DHT22;25048;49.590;11.026;2022-08-25T12:51:55;32.80;92.00
29281;DHT22;25048;49.590;11.026;2022-08-25T12:54:44;33.00;91.10
29281;DHT22;25048;49.590;11.026;2022-08-25T12:57:38;32.90;90.70
29281;DHT22;25048;49.590;11.026;2022-08-25T13:00:16;32.50;90.40
29281;DHT22;25048;49.590;11.026;2022-08-25T13:06:00;31.80;91.60
29281;DHT22;25048;49.590;11.026;2022-08-25T13:11:11;32.60;90.80
29281;DHT22;25048;49.590;11.026;2022-08-25T13:16:18;33.10;90.30
29281;DHT22;25048;49.590;11.026;2022-08-25T13:18:45;33.20;88.70
29281;DHT22;25048;49.590;11.026;2022-08-25T13:21:26;33.30;87.70
29281;DHT22;25048;49.590;11.026;2022-08-25T13:23:54;33.50;88.50
29281;DHT22;25048;49.590;11.026;2022-08-25T13:26:25;33.50;85.00
29281;DHT22;25048;49.590;11.026;2022-08-25T13:31:48;33.70;87.40
29281;DHT22;25048;49.590;11.026;2022-08-25T13:34:16;34.00;86.00
29281;DHT22;25048;49.590;11.026;2022-08-25T13:36:45;34.50;86.70
29281;DHT22;25048;49.590;11.026;2022-08-25T13:39:32;34.80;84.20
29281;DHT22;25048;49.590;11.026;2022-08-25T13:42:02;34.70;80.60
29281;DHT22;25048;49.590;11.026;2022-08-25T13:44:35;34.40;81.00
29281;DHT22;25048;49.590;11.026;2022-08-25T13:47:06;34.20;81.10
29281;DHT22;25048;49.590;11.026;2022-08-25T13:49:35;33.80;80.60
29281;DHT22;25048;49.590;11.026;2022-08-25T13:52:03;33.70;82.70
29281;DHT22;25048;49.590;11.026;2022-08-25T13:54:37;33.40;81.30
29281;DHT22;25048;49.590;11.026;2022-08-25T13:57:21;33.10;81.10
29281;DHT22;25048;49.590;11.026;2022-08-25T13:59:55;33.10;80.50
29281;DHT22;25048;49.590;11.026;2022-08-25T14:02:39;33.20;81.20
29281;DHT22;25048;49.590;11.026;2022-08-25T14:05:07;33.50;80.60
29281;DHT22;25048;49.590;11.026;2022-08-25T14:07:35;33.70;76.80
29281;DHT22;25048;49.590;11.026;2022-08-25T14:10:09;33.90;79.20
29281;DHT22;25048;49.590;11.026;2022-08-25T14:12:42;34.10;77.40
29281;DHT22;25048;49.590;11.026;2022-08-25T14:20:30;34.60;77.50
29281;DHT22;25048;49.590;11.026;2022-08-25T14:23:01;34.90;75.90
29281;DHT22;25048;49.590;11.026;2022-08-25T14:25:29;35.10;74.70
29281;DHT22;25048;49.590;11.026;2022-08-25T14:27:59;35.40;73.00
29281;DHT22;25048;49.590;11.026;2022-08-25T14:30:29;35.60;73.50
29281;DHT22;25048;49.590;11.026;2022-08-25T14:32:58;36.00;71.40
29281;DHT22;25048;49.590;11.026;2022-08-25T14:35:26;36.20;70.70
29281;DHT22;25048;49.590;11.026;2022-08-25T14:37:55;36.40;68.70
29281;DHT22;25048;49.590;11.026;2022-08-25T14:40:23;36.70;69.30
29281;DHT22;25048;49.590;11.026;2022-08-25T14:42:50;36.90;66.30
29281;DHT22;25048;49.590;11.026;2022-08-25T14:45:18;37.00;65.60
29281;DHT22;25048;49.590;11.026;2022-08-25T14:47:46;36.90;66.20
29281;DHT22;25048;49.590;11.026;2022-08-25T14:50:14;36.70;63.70
29281;DHT22;25048;49.590;11.026;2022-08-25T14:52:43;36.90;65.00
29281;DHT22;25048;49.590;11.026;2022-08-25T14:55:11;36.40;63.90
29281;DHT22;25048;49.590;11.026;2022-08-25T14:57:38;35.90;64.70
29281;DHT22;25048;49.590;11.026;2022-08-25T15:00:07;36.10;64.10
29281;DHT22;25048;49.590;11.026;2022-08-25T15:02:40;36.40;66.10
29281;DHT22;25048;49.590;11.026;2022-08-25T15:05:09;36.90;64.20
29281;DHT22;25048;49.590;11.026;2022-08-25T15:07:38;37.40;65.00
29281;DHT22;25048;49.590;11.026;2022-08-25T15:10:23;37.80;63.00
29281;DHT22;25048;49.590;11.026;2022-08-25T15:12:51;37.90;60.70
29281;DHT22;25048;49.590;11.026;2022-08-25T15:15:18;37.80;62.10
29281;DHT22;25048;49.590;11.026;2022-08-25T15:17:46;37.80;60.00
29281;DHT22;25048;49.590;11.026;2022-08-25T15:20:15;37.70;60.00
29281;DHT22;25048;49.590;11.026;2022-08-25T15:22:43;37.10;61.30
29281;DHT22;25048;49.590;11.026;2022-08-25T15:25:11;36.50;60.90
29281;DHT22;25048;49.590;11.026;2022-08-25T15:27:38;36.10;62.20
29281;DHT22;25048;49.590;11.026;2022-08-25T15:30:07;35.90;63.80
29281;DHT22;25048;49.590;11.026;2022-08-25T15:32:35;35.50;63.20
29281;DHT22;25048;49.590;11.026;2022-08-25T15:35:03;35.00;63.70
29281;DHT22;25048;49.590;11.026;2022-08-25T15:37:30;34.60;66.70
29281;DHT22;25048;49.590;11.026;2022-08-25T15:39:58;34.40;66.80
29281;DHT22;25048;49.590;11.026;2022-08-25T15:42:29;34.30;65.20
29281;DHT22;25048;49.590;11.026;2022-08-25T15:44:55;34.10;65.70
29281;DHT22;25048;49.590;11.026;2022-08-25T15:47:23;33.50;66.60
29281;DHT22;25048;49.590;11.026;2022-08-25T15:49:53;32.90;66.90
29281;DHT22;25048;49.590;11.026;2022-08-25T15:52:21;32.20;67.00
29281;DHT22;25048;49.590;11.026;2022-08-25T15:54:48;31.50;69.70
29281;DHT22;25048;49.590;11.026;2022-08-25T15:57:16;31.20;71.50
29281;DHT22;25048;49.590;11.026;2022-08-25T15:59:43;30.80;72.30
29281;DHT22;25048;49.590;11.026;2022-08-25T16:02:11;30.70;72.80
29281;DHT22;25048;49.590;11.026;2022-08-25T16:04:38;30.60;73.70
29281;DHT22;25048;49.590;11.026;2022-08-25T16:07:06;30.50;73.40
29281;DHT22;25048;49.590;11.026;2022-08-25T16:09:34;30.40;74.20
29281;DHT22;25048;49.590;11.026;2022-08-25T16:12:01;30.30;74.60
29281;DHT22;25048;49.590;11.026;2022-08-25T16:14:29;30.30;74.60
29281;DHT22;25048;49.590;11.026;2022-08-25T16:16:56;30.20;75.90
29281;DHT22;25048;49.590;11.026;2022-08-25T16:19:40;30.10;74.90
29281;DHT22;25048;49.590;11.026;2022-08-25T16:22:08;30.10;76.10
29281;DHT22;25048;49.590;11.026;2022-08-25T16:24:38;30.00;74.70
29281;DHT22;25048;49.590;11.026;2022-08-25T16:27:06;29.90;74.30
29281;DHT22;25048;49.590;11.026;2022-08-25T16:29:37;29.70;75.60
29281;DHT22;25048;49.590;11.026;2022-08-25T16:32:06;29.60;75.40
29281;DHT22;25048;49.590;11.026;2022-08-25T16:34:34;29.50;75.20
29281;DHT22;25048;49.590;11.026;2022-08-25T16:37:02;29.40;75.50
29281;DHT22;25048;49.590;11.026;2022-08-25T16:39:30;29.30;77.30
29281;DHT22;25048;49.590;11.026;2022-08-25T16:41:57;29.30;75.30
29281;DHT22;25048;49.590;11.026;2022-08-25T16:44:25;29.20;75.00
29281;DHT22;25048;49.590;11.026;2022-08-25T16:46:53;29.10;75.00
29281;DHT22;25048;49.590;11.026;2022-08-25T16:49:21;29.10;75.40
29281;DHT22;25048;49.590;11.026;2022-08-25T16:51:49;29.00;75.40
29281;DHT22;25048;49.590;11.026;2022-08-25T16:54:16;29.00;76.80
29281;DHT22;25048;49.590;11.026;2022-08-25T16:57:01;29.00;75.90
29281;DHT22;25048;49.590;11.026;2022-08-25T17:01:58;28.90;75.10
29281;DHT22;25048;49.590;11.026;2022-08-25T17:04:25;28.80;74.80
29281;DHT22;25048;49.590;11.026;2022-08-25T17:06:53;28.80;74.90
29281;DHT22;25048;49.590;11.026;2022-08-25T17:09:20;28.70;76.10
29281;DHT22;25048;49.590;11.026;2022-08-25T17:11:48;28.70;76.40
29281;DHT22;25048;49.590;11.026;2022-08-25T17:14:18;28.80;76.60